Weather at Salzburg Airport

Public forecast

Using degrees Celsius for public forecast. Weather courtesy of forecast.io.

Current aviation weather report (METAR) for Salzburg Airport

2024/07/20 15:20 (retrieved 21 minutes ago)

LOWS 201520Z AUTO 12006KT 090V160 9999 BKN110 24/18 Q1012 NOSIG

Aviation forecast (TAF) for Salzburg Airport

2024/07/20 12:21 (retrieved 3 hours ago)

TAF LOWS 201115Z 2012/2112 16006KT 9999 FEW055 BKN100 TX29/2112Z TN16/2102Z TEMPO 2012/2013 -SHRA TEMPO 2103/2105 MIFG TEMPO 2111/2112 35007KT